Disclaimer

Please do not use the information listed here in-flight or in-navigation, as they are not provided to us by the airports but are provided by volunteers, so they might be outdated.

Search


Regions


Airport information page

Radio informations:
Approach (APP) - 121.3 MHz

Airport informations:
Latitude: 33° 39' 19.52" N
Longitude: 007° 13' 17.22" W
Elevation: 627 feet - 191 meters
Operating hours: N/A
Operating agency: Civil government, landing fees and diplomatic clearance may be required
Timezone: N/A
Fuel: Unknown fuel type or whether there is any fuel.

Runway information:
14/32 - 10085 x 150 feet< - >3074 x 46 meters

Recent METARs:
GMMB 130300Z AUTO VRB02KT //// R32/P2000N ////// 13/13 Q1019 NOSIG
GMMB 130300Z AUTO VRB02KT //// R32/P2000N ////// 13/13 Q1019 NOSIG
GMMB 130400Z AUTO 05005KT //// R32/P2000N ////// 13/13 Q1019 NOSIG

Airport on the map: